Weather at Porto Santo Airport

Public forecast

Using degrees Celsius for public forecast. Weather courtesy of forecast.io.

Current aviation weather report (METAR) for Porto Santo Airport

Retrieved 2020/11/25 04:30 UTC (7 minutes ago):

LPPS 250430Z 34017KT 9999 BKN012 17/14 Q1021

Aviation forecast (TAF) for Porto Santo Airport

Retrieved 2020-11-25 00:18 UTC (4 hours ago):

TAF TAF LPPS 242300Z 2500/2606 36008KT 9999 SCT015 BKN030 BECMG 2500/2503 BKN012 TEMPO 2501/2506 6000 -RA SCT004 BKN008 BECMG 2504/2506 32017KT SCT015 TEMPO 2506/2606 35020G32KT 8000 SHRA SCT006 BKN012